createdAt,value
2017-05-11T00:00:30.037Z,0
2017-05-11T00:01:10.918Z,0
2017-05-11T00:01:51.817Z,0
2017-05-11T00:02:32.696Z,0
2017-05-11T00:03:13.562Z,0
2017-05-11T00:03:54.449Z,0
2017-05-11T00:04:35.330Z,0
2017-05-11T00:05:16.231Z,0
2017-05-11T00:05:57.102Z,0
2017-05-11T00:06:37.982Z,0
2017-05-11T00:07:18.859Z,0
2017-05-11T00:07:59.751Z,0
2017-05-11T00:08:40.635Z,0
2017-05-11T00:09:21.504Z,0
2017-05-11T00:10:02.395Z,0
2017-05-11T00:10:43.281Z,0
2017-05-11T00:11:24.152Z,0
2017-05-11T00:12:05.033Z,0
2017-05-11T00:12:45.921Z,0
2017-05-11T00:13:26.811Z,0
2017-05-11T00:14:07.695Z,0
2017-05-11T00:14:48.572Z,0
2017-05-11T00:15:29.455Z,0
2017-05-11T00:16:10.348Z,0
2017-05-11T00:16:51.235Z,0
2017-05-11T00:17:32.111Z,0
2017-05-11T00:18:13.018Z,0
2017-05-11T00:18:53.905Z,0
2017-05-11T00:19:34.774Z,0
2017-05-11T00:20:15.654Z,0
2017-05-11T00:20:56.554Z,0
2017-05-11T00:21:37.433Z,0
2017-05-11T00:22:18.313Z,0
2017-05-11T00:22:59.201Z,0
2017-05-11T00:23:40.091Z,0
2017-05-11T00:24:20.970Z,0
2017-05-11T00:25:01.894Z,0
2017-05-11T00:25:42.759Z,0
2017-05-11T00:26:23.646Z,0
2017-05-11T00:27:04.525Z,0
2017-05-11T00:27:45.409Z,0
2017-05-11T00:28:26.290Z,0
2017-05-11T00:29:07.168Z,0
2017-05-11T00:29:48.056Z,0
2017-05-11T00:30:28.939Z,0
2017-05-11T00:31:09.835Z,0
2017-05-11T00:31:50.711Z,0
2017-05-11T00:32:31.581Z,0
2017-05-11T00:33:12.456Z,0
2017-05-11T00:33:53.346Z,0
2017-05-11T00:34:34.225Z,0
2017-05-11T00:35:15.104Z,0
2017-05-11T00:35:55.973Z,0
2017-05-11T00:36:36.855Z,0
2017-05-11T00:37:17.735Z,0
2017-05-11T00:37:58.630Z,0
2017-05-11T00:38:39.510Z,0
2017-05-11T00:39:20.365Z,0
2017-05-11T00:40:01.248Z,0
2017-05-11T00:40:42.114Z,0
2017-05-11T00:41:23.007Z,0
2017-05-11T00:42:03.878Z,0
2017-05-11T00:42:44.740Z,0
2017-05-11T00:43:25.613Z,0
2017-05-11T00:44:06.488Z,0
2017-05-11T00:44:47.409Z,0
2017-05-11T00:45:28.280Z,0
2017-05-11T00:46:09.155Z,0
2017-05-11T00:46:50.043Z,0
2017-05-11T00:47:30.967Z,0
2017-05-11T00:48:11.826Z,0
2017-05-11T00:48:52.750Z,0
2017-05-11T00:49:33.625Z,0
2017-05-11T00:50:14.504Z,0
2017-05-11T00:50:55.387Z,0
2017-05-11T00:51:36.285Z,0
2017-05-11T00:52:17.172Z,0
2017-05-11T00:52:58.043Z,0
2017-05-11T00:53:38.957Z,0
2017-05-11T00:54:19.836Z,0
2017-05-11T00:55:01.490Z,0
2017-05-11T00:55:42.376Z,0
2017-05-11T00:56:23.287Z,0
2017-05-11T00:57:04.183Z,0
2017-05-11T00:57:45.045Z,0
2017-05-11T00:58:25.915Z,0
2017-05-11T00:59:06.797Z,0
2017-05-11T00:59:47.712Z,0
2017-05-11T01:00:28.580Z,0
2017-05-11T01:01:09.460Z,0
2017-05-11T01:01:50.350Z,0
2017-05-11T01:02:31.248Z,0
2017-05-11T01:03:12.128Z,0
2017-05-11T01:03:53.012Z,0
2017-05-11T01:04:33.902Z,0
2017-05-11T01:05:14.781Z,0
2017-05-11T01:05:55.663Z,0
2017-05-11T01:06:36.558Z,0
2017-05-11T01:07:17.435Z,0
2017-05-11T01:07:58.314Z,0
2017-05-11T01:08:39.200Z,0
2017-05-11T01:09:20.072Z,0
2017-05-11T01:10:00.958Z,0
2017-05-11T01:10:41.856Z,0
2017-05-11T01:11:22.712Z,0
2017-05-11T01:12:03.584Z,0
2017-05-11T01:12:44.458Z,0
2017-05-11T01:13:25.329Z,0
2017-05-11T01:14:06.205Z,0
2017-05-11T01:14:47.079Z,0
2017-05-11T01:15:27.964Z,0
2017-05-11T01:16:08.838Z,0
2017-05-11T01:16:49.727Z,0
2017-05-11T01:17:30.632Z,0
2017-05-11T01:18:11.494Z,0
2017-05-11T01:18:52.354Z,0
2017-05-11T01:19:33.215Z,0
2017-05-11T01:20:14.088Z,0
2017-05-11T01:20:54.988Z,0
2017-05-11T01:21:35.895Z,0
2017-05-11T01:22:16.742Z,0
2017-05-11T01:22:57.605Z,0
2017-05-11T01:23:38.467Z,0
2017-05-11T01:24:19.388Z,0
2017-05-11T01:26:28.342Z,0
2017-05-11T01:27:09.199Z,0
2017-05-11T01:27:50.068Z,0
2017-05-11T01:28:30.933Z,0
2017-05-11T01:29:11.822Z,0
2017-05-11T01:29:52.705Z,0
2017-05-11T01:30:33.584Z,0
2017-05-11T01:31:14.446Z,0
2017-05-11T01:31:55.310Z,0
2017-05-11T01:32:36.178Z,0
2017-05-11T01:33:17.033Z,0
2017-05-11T01:33:57.903Z,0
2017-05-11T01:34:38.789Z,0
2017-05-11T01:35:19.676Z,0
2017-05-11T01:36:00.552Z,0
2017-05-11T01:36:41.436Z,0
2017-05-11T01:37:22.323Z,0
2017-05-11T01:38:03.217Z,0
2017-05-11T01:38:44.088Z,0
2017-05-11T01:39:24.961Z,0
2017-05-11T01:40:05.847Z,0
2017-05-11T01:40:46.754Z,0
2017-05-11T01:41:27.619Z,0
2017-05-11T01:42:08.482Z,0
2017-05-11T01:42:49.395Z,0
2017-05-11T01:43:30.285Z,0
2017-05-11T01:44:11.159Z,0
2017-05-11T01:44:52.031Z,0
2017-05-11T01:45:32.919Z,0
2017-05-11T01:46:13.829Z,0
2017-05-11T01:46:54.693Z,0
2017-05-11T01:47:35.560Z,0
2017-05-11T01:48:16.421Z,0
2017-05-11T01:48:57.281Z,0
2017-05-11T01:49:38.171Z,0
2017-05-11T01:50:19.075Z,0
2017-05-11T01:50:59.945Z,0
2017-05-11T01:51:40.813Z,0
2017-05-11T01:52:21.703Z,0
2017-05-11T01:53:02.612Z,0
2017-05-11T01:53:43.482Z,0
2017-05-11T01:54:24.358Z,0
2017-05-11T01:55:05.242Z,0
2017-05-11T01:55:46.142Z,0
2017-05-11T01:56:27.003Z,0
2017-05-11T01:57:07.868Z,0
2017-05-11T01:57:48.741Z,0
2017-05-11T01:58:29.644Z,0
2017-05-11T01:59:10.540Z,0
2017-05-11T01:59:51.415Z,0
2017-05-11T02:00:32.296Z,0
2017-05-11T02:01:13.148Z,0
2017-05-11T02:01:54.022Z,0
2017-05-11T02:02:34.933Z,0
2017-05-11T02:03:15.791Z,0
2017-05-11T02:03:56.659Z,0
2017-05-11T02:04:37.522Z,0
2017-05-11T02:05:18.396Z,0
2017-05-11T02:05:59.282Z,0
2017-05-11T02:06:40.184Z,0
2017-05-11T02:07:21.053Z,0
2017-05-11T02:08:01.984Z,0
2017-05-11T02:08:42.832Z,0
2017-05-11T02:09:23.720Z,0
2017-05-11T02:10:04.584Z,0
2017-05-11T02:10:45.452Z,0
2017-05-11T02:11:26.330Z,0
2017-05-11T02:12:07.218Z,0
2017-05-11T02:12:48.113Z,0
2017-05-11T02:13:28.978Z,0
2017-05-11T02:14:09.862Z,0
2017-05-11T02:14:50.750Z,0
2017-05-11T02:16:51.990Z,0
2017-05-11T02:17:32.876Z,0
2017-05-11T02:18:13.754Z,0
2017-05-11T02:18:54.621Z,0
2017-05-11T02:19:35.493Z,0
2017-05-11T02:20:16.429Z,0
2017-05-11T02:20:57.261Z,0
2017-05-11T02:21:38.141Z,0
2017-05-11T02:22:19.846Z,0
2017-05-11T02:23:00.742Z,0
2017-05-11T02:23:41.626Z,0
2017-05-11T02:24:22.501Z,0
2017-05-11T02:25:03.386Z,0
2017-05-11T02:25:44.286Z,0
2017-05-11T02:26:25.158Z,0
2017-05-11T02:27:06.073Z,0
2017-05-11T02:27:46.910Z,0
2017-05-11T02:28:27.809Z,0
2017-05-11T02:29:08.695Z,0
2017-05-11T02:29:49.575Z,0
2017-05-11T02:30:30.467Z,0
2017-05-11T02:31:11.361Z,0
2017-05-11T02:31:52.236Z,0
2017-05-11T02:32:33.120Z,0
2017-05-11T02:33:14.007Z,0
2017-05-11T02:33:54.907Z,0
2017-05-11T02:34:35.784Z,0
2017-05-11T02:35:16.647Z,0
2017-05-11T02:35:57.529Z,4
2017-05-11T02:36:38.422Z,4
2017-05-11T02:37:19.329Z,4
2017-05-11T02:38:00.231Z,4
2017-05-11T02:38:41.102Z,4
2017-05-11T02:39:22.129Z,4
2017-05-11T02:40:03.009Z,0
2017-05-11T02:40:43.891Z,0
2017-05-11T02:41:24.763Z,0
2017-05-11T02:42:05.638Z,4
2017-05-11T02:44:19.737Z,4
2017-05-11T02:45:00.614Z,4
2017-05-11T02:45:41.510Z,4
2017-05-11T02:46:22.395Z,4
2017-05-11T02:47:03.275Z,8
2017-05-11T02:47:44.158Z,8
2017-05-11T02:48:25.033Z,4
2017-05-11T02:49:05.913Z,4
2017-05-11T02:49:46.808Z,8
2017-05-11T02:50:27.685Z,4
2017-05-11T02:51:08.569Z,8
2017-05-11T02:51:49.446Z,12
2017-05-11T02:52:30.341Z,8
2017-05-11T02:53:11.219Z,12
2017-05-11T02:53:52.082Z,8
2017-05-11T02:54:32.969Z,12
2017-05-11T02:55:13.854Z,12
2017-05-11T02:55:54.734Z,16
2017-05-11T02:56:35.615Z,12
2017-05-11T02:57:16.490Z,16
2017-05-11T02:57:57.372Z,16
2017-05-11T02:58:38.261Z,20
2017-05-11T02:59:19.109Z,20
2017-05-11T02:59:59.984Z,20
2017-05-11T03:00:40.866Z,24
2017-05-11T03:01:21.794Z,24
2017-05-11T03:02:02.638Z,28
2017-05-11T03:02:43.518Z,28
2017-05-11T03:03:24.396Z,32
2017-05-11T03:04:05.288Z,32
2017-05-11T03:04:46.181Z,36
2017-05-11T03:05:27.063Z,40
2017-05-11T03:06:07.940Z,44
2017-05-11T03:06:48.824Z,48
2017-05-11T03:07:29.711Z,48
2017-05-11T03:08:10.592Z,52
2017-05-11T03:08:51.469Z,56
2017-05-11T03:09:32.440Z,60
2017-05-11T03:10:13.579Z,64
2017-05-11T03:10:54.450Z,68
2017-05-11T03:11:35.385Z,72
2017-05-11T03:12:16.256Z,76
2017-05-11T03:12:57.145Z,80
2017-05-11T03:13:38.024Z,84
2017-05-11T03:14:18.896Z,88
2017-05-11T03:14:59.798Z,96
2017-05-11T03:15:40.657Z,104
2017-05-11T03:16:21.535Z,112
2017-05-11T03:17:02.459Z,120
2017-05-11T03:17:43.329Z,128
2017-05-11T03:18:24.192Z,136
2017-05-11T03:19:05.077Z,144
2017-05-11T03:19:45.967Z,152
2017-05-11T03:20:27.580Z,160
2017-05-11T03:21:08.462Z,172
2017-05-11T03:21:49.351Z,184
2017-05-11T03:22:30.230Z,196
2017-05-11T03:23:11.106Z,208
2017-05-11T03:23:51.984Z,220
2017-05-11T03:24:32.859Z,240
2017-05-11T03:25:13.751Z,252
2017-05-11T03:25:54.639Z,268
2017-05-11T03:26:35.504Z,284
2017-05-11T03:27:16.380Z,304
2017-05-11T03:27:57.257Z,320
2017-05-11T03:28:38.149Z,340
2017-05-11T03:29:19.034Z,360
2017-05-11T03:29:59.904Z,380
2017-05-11T03:30:40.789Z,400
2017-05-11T03:31:21.680Z,420
2017-05-11T03:32:02.556Z,440
2017-05-11T03:32:43.423Z,464
2017-05-11T03:33:24.295Z,488
2017-05-11T03:34:05.163Z,508
2017-05-11T03:34:46.069Z,532
2017-05-11T03:35:26.947Z,560
2017-05-11T03:36:07.828Z,584
2017-05-11T03:36:48.694Z,612
2017-05-11T03:37:29.587Z,636
2017-05-11T03:38:10.467Z,668
2017-05-11T03:38:51.349Z,696
2017-05-11T03:39:32.249Z,724
2017-05-11T03:40:13.141Z,756
2017-05-11T03:40:54.024Z,784
2017-05-11T03:41:34.887Z,816
2017-05-11T03:42:15.764Z,852
2017-05-11T03:42:56.646Z,892
2017-05-11T03:43:37.535Z,928
2017-05-11T03:44:18.420Z,968
2017-05-11T03:44:59.365Z,1000
2017-05-11T03:45:40.211Z,1036
2017-05-11T03:46:21.087Z,1068
2017-05-11T03:47:01.996Z,1096
2017-05-11T03:47:42.883Z,1128
2017-05-11T03:48:23.767Z,1156
2017-05-11T03:49:04.647Z,1188
2017-05-11T03:49:45.514Z,1212
2017-05-11T03:50:26.402Z,1240
2017-05-11T03:51:07.293Z,1264
2017-05-11T03:51:48.175Z,1288
2017-05-11T03:52:29.073Z,1312
2017-05-11T03:53:09.953Z,1340
2017-05-11T03:53:50.837Z,1372
2017-05-11T03:54:31.715Z,1400
2017-05-11T03:55:12.597Z,1432
2017-05-11T03:55:53.469Z,1472
2017-05-11T03:56:34.355Z,1508
2017-05-11T03:57:15.272Z,1532
2017-05-11T03:57:56.109Z,1540
2017-05-11T03:58:36.993Z,1548
2017-05-11T03:59:17.885Z,1556
2017-05-11T03:59:58.766Z,1572
2017-05-11T04:00:39.633Z,1592
2017-05-11T04:01:20.519Z,1620
2017-05-11T04:02:01.411Z,1652
2017-05-11T04:02:42.298Z,1680
2017-05-11T04:03:23.176Z,1712
2017-05-11T04:04:04.052Z,1752
2017-05-11T04:04:44.945Z,1792
2017-05-11T04:05:25.832Z,1840
2017-05-11T04:06:06.696Z,1884
2017-05-11T04:06:47.585Z,1924
2017-05-11T04:07:28.474Z,1960
2017-05-11T04:08:09.351Z,1992
2017-05-11T04:08:50.253Z,2020
2017-05-11T04:09:31.133Z,2048
2017-05-11T04:10:12.014Z,2068
2017-05-11T04:10:52.896Z,2096
2017-05-11T04:11:33.777Z,2128
2017-05-11T04:12:14.655Z,2152
2017-05-11T04:12:55.543Z,2164
2017-05-11T04:13:36.424Z,2184
2017-05-11T04:14:17.308Z,2204
2017-05-11T04:14:58.192Z,2216
2017-05-11T04:15:39.085Z,2240
2017-05-11T04:16:19.957Z,2264
2017-05-11T04:17:00.873Z,2292
2017-05-11T04:17:41.722Z,2312
2017-05-11T04:18:22.603Z,2332
2017-05-11T04:19:03.503Z,2348
2017-05-11T04:19:44.395Z,2356
2017-05-11T04:20:25.280Z,2372
2017-05-11T04:21:06.167Z,2376
2017-05-11T04:21:47.055Z,2372
2017-05-11T04:22:27.936Z,2356
2017-05-11T04:23:08.790Z,2348
2017-05-11T04:23:49.679Z,2344
2017-05-11T04:24:30.558Z,2348
2017-05-11T04:25:11.436Z,2356
2017-05-11T04:25:52.310Z,2360
2017-05-11T04:26:33.204Z,2376
2017-05-11T04:27:14.067Z,2400
2017-05-11T04:27:54.947Z,2428
2017-05-11T04:28:35.830Z,2452
2017-05-11T04:29:16.717Z,2476
2017-05-11T04:29:57.604Z,2492
2017-05-11T04:30:38.512Z,2500
2017-05-11T04:31:19.363Z,2504
2017-05-11T04:32:00.259Z,2508
2017-05-11T04:32:41.178Z,2512
2017-05-11T04:33:22.038Z,2500
2017-05-11T04:34:02.933Z,2500
2017-05-11T04:34:43.815Z,2504
2017-05-11T04:35:24.683Z,2504
2017-05-11T04:36:05.550Z,2516
2017-05-11T04:36:46.449Z,2524
2017-05-11T04:37:27.343Z,2544
2017-05-11T04:38:08.223Z,2572
2017-05-11T04:38:49.108Z,2600
2017-05-11T04:39:29.993Z,2636
2017-05-11T04:40:10.892Z,2676
2017-05-11T04:40:51.758Z,2724
2017-05-11T04:41:32.667Z,2776
2017-05-11T04:42:13.530Z,2844
2017-05-11T04:42:54.408Z,2916
2017-05-11T04:43:35.290Z,2980
2017-05-11T04:44:16.175Z,3056
2017-05-11T04:44:57.064Z,3128
2017-05-11T04:45:37.944Z,3196
2017-05-11T04:46:18.829Z,3256
2017-05-11T04:46:59.712Z,3312
2017-05-11T04:47:40.592Z,3352
2017-05-11T04:48:21.476Z,3396
2017-05-11T04:49:02.360Z,3440
2017-05-11T04:49:43.241Z,3480
2017-05-11T04:50:24.125Z,3532
2017-05-11T04:51:05.008Z,3584
2017-05-11T04:51:45.898Z,3644
2017-05-11T04:52:26.776Z,3716
2017-05-11T04:53:07.667Z,3788
2017-05-11T04:53:48.538Z,3864
2017-05-11T04:54:29.422Z,3936
2017-05-11T04:55:10.309Z,4008
2017-05-11T04:55:51.190Z,4076
2017-05-11T04:56:32.074Z,4132
2017-05-11T04:57:12.956Z,4176
2017-05-11T04:57:53.840Z,4208
2017-05-11T04:58:34.735Z,4240
2017-05-11T04:59:15.616Z,4284
2017-05-11T05:01:30.773Z,4392
2017-05-11T05:02:11.657Z,4436
2017-05-11T05:02:52.530Z,4484
2017-05-11T05:03:33.409Z,4516
2017-05-11T05:04:14.290Z,4560
2017-05-11T05:04:55.170Z,4600
2017-05-11T05:05:36.052Z,4616
2017-05-11T05:06:16.936Z,4636
2017-05-11T05:06:57.813Z,4632
2017-05-11T05:07:38.682Z,4644
2017-05-11T05:08:19.565Z,4664
2017-05-11T05:09:00.440Z,4692
2017-05-11T05:09:41.327Z,4740
2017-05-11T05:10:22.215Z,4780
2017-05-11T05:11:03.084Z,4812
2017-05-11T05:11:43.957Z,4836
2017-05-11T05:12:24.838Z,4872
2017-05-11T05:13:05.744Z,4904
2017-05-11T05:13:46.650Z,4928
2017-05-11T05:14:27.505Z,4944
2017-05-11T05:15:08.392Z,4936
2017-05-11T05:15:49.281Z,4940
2017-05-11T05:16:30.169Z,4952
2017-05-11T05:17:11.064Z,4976
2017-05-11T05:17:51.941Z,5024
2017-05-11T05:18:32.841Z,5056
2017-05-11T05:19:13.697Z,5076
2017-05-11T05:19:54.579Z,5100
2017-05-11T05:20:35.491Z,5108
2017-05-11T05:21:16.375Z,5116
2017-05-11T05:21:57.253Z,5104
2017-05-11T05:22:38.158Z,5096
2017-05-11T05:23:19.009Z,5068
2017-05-11T05:23:59.902Z,5116
2017-05-11T05:24:40.789Z,5168
2017-05-11T05:25:21.674Z,5176
2017-05-11T05:26:02.553Z,5180
2017-05-11T05:26:43.431Z,5176
2017-05-11T05:27:24.296Z,5180
2017-05-11T05:28:05.181Z,5204
2017-05-11T05:28:46.085Z,5240
2017-05-11T05:29:27.007Z,5260
2017-05-11T05:30:07.848Z,5224
2017-05-11T05:30:48.736Z,5168
2017-05-11T05:31:29.666Z,5152
2017-05-11T05:32:10.536Z,5168
2017-05-11T05:32:51.437Z,5136
2017-05-11T05:33:32.324Z,5108
2017-05-11T05:34:13.202Z,5116
2017-05-11T05:34:54.064Z,5100
2017-05-11T05:35:34.942Z,5076
2017-05-11T05:36:15.842Z,5088
2017-05-11T05:36:56.720Z,5124
2017-05-11T05:37:37.595Z,5148
2017-05-11T05:38:18.471Z,5160
2017-05-11T05:38:59.341Z,5168
2017-05-11T05:39:40.220Z,5176
2017-05-11T05:40:21.107Z,5204
2017-05-11T05:41:01.998Z,5236
2017-05-11T05:41:42.877Z,5240
2017-05-11T05:42:23.767Z,5224
2017-05-11T05:43:04.638Z,5208
2017-05-11T05:43:45.513Z,5192
2017-05-11T05:44:26.392Z,5196
2017-05-11T05:45:07.269Z,5200
2017-05-11T05:45:48.150Z,5196
2017-05-11T05:46:29.039Z,5192
2017-05-11T05:47:09.938Z,5216
2017-05-11T05:47:50.838Z,5228
2017-05-11T05:48:31.748Z,5272
2017-05-11T05:49:12.614Z,5356
2017-05-11T05:49:53.503Z,5432
2017-05-11T05:50:34.388Z,5480
2017-05-11T05:51:15.258Z,5536
2017-05-11T05:51:56.132Z,5608
2017-05-11T05:52:37.044Z,5696
2017-05-11T05:53:17.924Z,5784
2017-05-11T05:53:58.786Z,5852
2017-05-11T05:54:39.641Z,5936
2017-05-11T05:55:20.542Z,6056
2017-05-11T05:56:01.397Z,6148
2017-05-11T05:56:42.277Z,6212
2017-05-11T05:57:23.161Z,6276
2017-05-11T05:58:04.113Z,6352
2017-05-11T05:58:44.978Z,6460
2017-05-11T05:59:25.854Z,6512
2017-05-11T06:00:06.737Z,6560
2017-05-11T06:00:47.617Z,6624
2017-05-11T06:01:28.511Z,6708
2017-05-11T06:02:09.395Z,6772
2017-05-11T06:02:50.282Z,6816
2017-05-11T06:03:31.156Z,6924
2017-05-11T06:04:12.103Z,7008
2017-05-11T06:04:52.908Z,6988
2017-05-11T06:05:33.774Z,7120
2017-05-11T06:06:14.650Z,7172
2017-05-11T06:06:55.529Z,7184
2017-05-11T06:07:36.422Z,7160
2017-05-11T06:08:17.313Z,7152
2017-05-11T06:08:58.213Z,7128
2017-05-11T06:09:39.105Z,7112
2017-05-11T06:10:19.982Z,7076
2017-05-11T06:11:00.851Z,7064
2017-05-11T06:11:41.727Z,7056
2017-05-11T06:12:22.603Z,7040
2017-05-11T06:13:03.494Z,6976
2017-05-11T06:13:44.380Z,6904
2017-05-11T06:14:25.264Z,6848
2017-05-11T06:15:06.165Z,6848
2017-05-11T06:15:47.046Z,6892
2017-05-11T06:16:27.920Z,6824
2017-05-11T06:17:08.792Z,6896
2017-05-11T06:17:49.675Z,6808
2017-05-11T06:18:30.545Z,6792
2017-05-11T06:19:11.422Z,6856
2017-05-11T06:19:52.302Z,7188
2017-05-11T06:20:33.188Z,7256
2017-05-11T06:21:14.061Z,7124
2017-05-11T06:21:54.959Z,7064
2017-05-11T06:22:35.848Z,7400
2017-05-11T06:23:16.738Z,7628
2017-05-11T06:23:57.619Z,7860
2017-05-11T06:24:38.504Z,8132
2017-05-11T06:25:19.384Z,8552
2017-05-11T06:26:00.272Z,9528
2017-05-11T06:26:41.161Z,10472
2017-05-11T06:27:22.045Z,11152
2017-05-11T06:28:02.934Z,11480
2017-05-11T06:28:43.831Z,11984
2017-05-11T06:29:24.753Z,12688
2017-05-11T06:30:05.605Z,13168
2017-05-11T06:30:46.492Z,13276
2017-05-11T06:31:27.381Z,13648
2017-05-11T06:32:08.274Z,15456
2017-05-11T06:32:49.157Z,20640
2017-05-11T06:33:30.048Z,26144
2017-05-11T06:34:10.935Z,29536
2017-05-11T06:34:51.816Z,33600
2017-05-11T06:35:32.712Z,35712
2017-05-11T06:36:13.593Z,35360
2017-05-11T06:36:54.469Z,37024
2017-05-11T06:37:35.357Z,36352
2017-05-11T06:38:16.252Z,36864
2017-05-11T06:38:57.142Z,39520
2017-05-11T06:39:38.035Z,41632
2017-05-11T06:40:18.925Z,43744
2017-05-11T06:40:59.817Z,44992
2017-05-11T06:41:40.707Z,45024
2017-05-11T06:42:21.590Z,44128
2017-05-11T06:43:02.467Z,45408
2017-05-11T06:43:43.366Z,45248
2017-05-11T06:44:24.255Z,45280
2017-05-11T06:45:05.145Z,44224
2017-05-11T06:45:46.043Z,43744
2017-05-11T06:46:26.951Z,45088
2017-05-11T06:47:07.828Z,46304
2017-05-11T06:47:48.713Z,44832
2017-05-11T06:48:29.598Z,46272
2017-05-11T06:49:10.485Z,45504
2017-05-11T06:49:51.380Z,43040
2017-05-11T06:50:32.280Z,43360
2017-05-11T06:51:13.172Z,40192
2017-05-11T06:51:54.060Z,39904
2017-05-11T06:52:34.954Z,39136
2017-05-11T06:53:15.837Z,38336
2017-05-11T06:53:56.759Z,40928
2017-05-11T06:54:37.668Z,48672
2017-05-11T06:55:18.554Z,49440
2017-05-11T06:55:59.450Z,50880
2017-05-11T06:56:40.367Z,48960
2017-05-11T06:57:21.296Z,47456
2017-05-11T06:58:02.163Z,45792
2017-05-11T06:58:43.079Z,44640
2017-05-11T06:59:24.018Z,43072
2017-05-11T07:00:04.918Z,42784
2017-05-11T07:00:45.798Z,43296
2017-05-11T07:01:26.697Z,43616
2017-05-11T07:02:07.566Z,45248
2017-05-11T07:02:48.453Z,45760
2017-05-11T07:03:29.383Z,47136
2017-05-11T07:04:10.285Z,47232
2017-05-11T07:04:51.176Z,47168
2017-05-11T07:05:32.080Z,48096
2017-05-11T07:06:12.966Z,45472
2017-05-11T07:06:53.868Z,43584
2017-05-11T07:07:34.775Z,42752
2017-05-11T07:08:15.668Z,41696
2017-05-11T07:08:56.560Z,45728
2017-05-11T07:09:37.452Z,47488
2017-05-11T07:10:18.350Z,45760
2017-05-11T07:10:59.247Z,45280
2017-05-11T07:11:40.140Z,45152
2017-05-11T07:12:21.031Z,37600
2017-05-11T07:13:01.933Z,27392
2017-05-11T07:13:42.827Z,31712
2017-05-11T07:14:23.723Z,21568
2017-05-11T07:15:04.624Z,27136
2017-05-11T07:15:45.513Z,37504
2017-05-11T07:16:26.409Z,44640
2017-05-11T07:17:07.303Z,46336
2017-05-11T07:17:48.207Z,47872
2017-05-11T07:18:29.112Z,48544
2017-05-11T07:19:10.008Z,49664
2017-05-11T07:19:50.907Z,50208
2017-05-11T07:20:31.798Z,49824
2017-05-11T07:21:12.716Z,42720
2017-05-11T07:21:53.606Z,45312
2017-05-11T07:22:34.509Z,43904
2017-05-11T07:23:15.410Z,44544
2017-05-11T07:23:56.310Z,47712
2017-05-11T07:24:37.207Z,48192
2017-05-11T07:25:18.103Z,45856
2017-05-11T07:25:59.003Z,49472
2017-05-11T07:26:39.915Z,47872
2017-05-11T07:27:20.802Z,48704
2017-05-11T07:28:01.714Z,47488
2017-05-11T07:28:42.620Z,48608
2017-05-11T07:29:24.200Z,44032
2017-05-11T07:30:05.133Z,45216
2017-05-11T07:30:46.017Z,46176
2017-05-11T07:31:26.911Z,51872
2017-05-11T07:32:07.814Z,52000
2017-05-11T07:32:48.698Z,51872
2017-05-11T07:33:29.623Z,50784
2017-05-11T07:34:10.522Z,49568
2017-05-11T07:34:51.420Z,48992
2017-05-11T07:35:32.307Z,47776
2017-05-11T07:36:13.302Z,42880
2017-05-11T07:36:54.213Z,42848
2017-05-11T07:37:35.111Z,46080
2017-05-11T07:38:16.018Z,47264
2017-05-11T07:38:56.925Z,48672
2017-05-11T07:39:37.833Z,49600
2017-05-11T07:40:18.740Z,51328
2017-05-11T07:40:59.637Z,51040
2017-05-11T07:41:40.532Z,50176
2017-05-11T07:42:21.440Z,49760
2017-05-11T07:43:02.343Z,49440
2017-05-11T07:43:43.241Z,48576
2017-05-11T07:44:24.149Z,48480
2017-05-11T07:45:05.033Z,49536
2017-05-11T07:45:45.941Z,50496
2017-05-11T07:46:26.840Z,51232
2017-05-11T07:47:07.752Z,51168
2017-05-11T07:47:48.657Z,50496
2017-05-11T07:48:29.561Z,50976
2017-05-11T07:49:10.496Z,50944
2017-05-11T07:49:51.362Z,49984
2017-05-11T07:50:32.264Z,49728
2017-05-11T07:51:13.161Z,52160
2017-05-11T07:51:54.102Z,52576
2017-05-11T07:52:34.979Z,56064
2017-05-11T07:53:15.881Z,54432
2017-05-11T07:53:56.819Z,54496
2017-05-11T07:54:37.712Z,54848
2017-05-11T07:55:18.604Z,55968
2017-05-11T07:55:59.506Z,55328
2017-05-11T07:56:40.407Z,56096
2017-05-11T07:57:21.312Z,57888
2017-05-11T07:58:02.229Z,59968
2017-05-11T07:58:43.116Z,61376
2017-05-11T07:59:24.020Z,62208
2017-05-11T08:00:04.919Z,60544
2017-05-11T08:00:45.818Z,60416
2017-05-11T08:01:26.724Z,59840
2017-05-11T08:02:07.634Z,54880
2017-05-11T08:02:48.550Z,50976
2017-05-11T08:03:29.426Z,48640
2017-05-11T08:04:10.331Z,48032
2017-05-11T08:04:51.229Z,54304
2017-05-11T08:05:32.135Z,58336
2017-05-11T08:06:13.033Z,59424
2017-05-11T08:06:53.929Z,61344
2017-05-11T08:07:34.839Z,64000
2017-05-11T08:08:15.759Z,65152
2017-05-11T08:08:56.668Z,68640
2017-05-11T08:09:37.569Z,70336
2017-05-11T08:10:18.476Z,70528
2017-05-11T08:10:59.379Z,71648
2017-05-11T08:11:40.300Z,69728
2017-05-11T08:12:21.201Z,68032
2017-05-11T08:13:02.111Z,65184
2017-05-11T08:13:43.046Z,58560
2017-05-11T08:14:23.953Z,51392
2017-05-11T08:15:04.866Z,40928
2017-05-11T08:15:45.772Z,55424
2017-05-11T08:16:26.664Z,61696
2017-05-11T08:17:07.578Z,62720
2017-05-11T08:17:48.478Z,61120
2017-05-11T08:18:29.376Z,65856
2017-05-11T08:19:10.289Z,67808
2017-05-11T08:19:51.201Z,68256
2017-05-11T08:20:32.107Z,66880
2017-05-11T08:21:13.021Z,64576
2017-05-11T08:21:53.912Z,64224
2017-05-11T08:22:34.803Z,61888
2017-05-11T08:23:15.717Z,59872
2017-05-11T08:23:56.626Z,60320
2017-05-11T08:24:37.533Z,61728
2017-05-11T08:25:18.467Z,63840
2017-05-11T08:25:59.365Z,69152
2017-05-11T08:26:40.265Z,68928
2017-05-11T08:27:21.175Z,63520
2017-05-11T08:28:02.077Z,63008
2017-05-11T08:28:42.989Z,60192
2017-05-11T08:29:23.899Z,57728
2017-05-11T08:30:04.810Z,58784
2017-05-11T08:30:45.706Z,60000
2017-05-11T08:31:26.632Z,57088
2017-05-11T08:32:07.528Z,57952
2017-05-11T08:32:48.445Z,60384
2017-05-11T08:33:29.338Z,61888
2017-05-11T08:34:10.244Z,70656
2017-05-11T08:34:51.140Z,76192
2017-05-11T08:35:32.052Z,75520
2017-05-11T08:36:12.957Z,74592
2017-05-11T08:36:53.854Z,74976
2017-05-11T08:37:34.759Z,73312
2017-05-11T08:38:15.665Z,72800
2017-05-11T08:38:56.570Z,68992
2017-05-11T08:39:37.511Z,61856
2017-05-11T08:40:18.416Z,59552
2017-05-11T08:40:59.330Z,58880
2017-05-11T08:41:40.233Z,61568
2017-05-11T08:42:21.147Z,66624
2017-05-11T08:43:02.037Z,70240
2017-05-11T08:43:42.940Z,77344
2017-05-11T08:44:23.847Z,80960
2017-05-11T08:45:04.754Z,81696
2017-05-11T08:45:45.665Z,84256
2017-05-11T08:46:26.555Z,86336
2017-05-11T08:47:07.464Z,83840
2017-05-11T08:47:48.357Z,78528
2017-05-11T08:48:29.257Z,73440
2017-05-11T08:49:10.159Z,72192
2017-05-11T08:49:51.046Z,69504
2017-05-11T08:50:31.959Z,67520
2017-05-11T08:51:12.868Z,59872
2017-05-11T08:51:53.773Z,43808
2017-05-11T08:52:34.676Z,25344
2017-05-11T08:53:15.582Z,13540
2017-05-11T08:53:56.491Z,12056
2017-05-11T08:54:37.391Z,11704
2017-05-11T08:55:18.289Z,11488
2017-05-11T08:55:59.195Z,11304
2017-05-11T08:56:40.106Z,11220
2017-05-11T08:58:39.918Z,10444
2017-05-11T08:59:20.810Z,10532
2017-05-11T09:00:01.726Z,10572
2017-05-11T09:00:42.623Z,10552
2017-05-11T09:01:23.534Z,10448
2017-05-11T09:02:04.430Z,10392
2017-05-11T09:02:45.346Z,10300
2017-05-11T09:03:26.243Z,10432
2017-05-11T09:04:07.151Z,10460
2017-05-11T09:04:48.056Z,10432
2017-05-11T09:05:28.948Z,10628
2017-05-11T09:06:09.861Z,10356
2017-05-11T09:06:50.767Z,10300
2017-05-11T09:07:31.673Z,10256
2017-05-11T09:08:12.563Z,10284
2017-05-11T09:08:53.472Z,10252
2017-05-11T09:09:34.377Z,10288
2017-05-11T09:10:15.290Z,10408
2017-05-11T09:10:56.198Z,12088
2017-05-11T09:11:37.107Z,27360
2017-05-11T09:12:18.017Z,48928
2017-05-11T09:12:58.926Z,67872
2017-05-11T09:13:39.839Z,72320
2017-05-11T09:14:20.748Z,76608
2017-05-11T09:15:01.661Z,81344
2017-05-11T09:15:42.570Z,83584
2017-05-11T09:16:23.474Z,85600
2017-05-11T09:17:04.382Z,81760
2017-05-11T09:17:45.279Z,81344
2017-05-11T09:18:26.187Z,79680
2017-05-11T09:19:07.107Z,73888
2017-05-11T09:19:47.998Z,70496
2017-05-11T09:20:28.905Z,66432
2017-05-11T09:21:09.813Z,63744
2017-05-11T09:21:50.713Z,62880
2017-05-11T09:22:31.622Z,66144
2017-05-11T09:23:12.530Z,68320
2017-05-11T09:23:53.440Z,74080
2017-05-11T09:24:34.353Z,77856
2017-05-11T09:25:15.241Z,79776